createdAt,value
2018-03-18T00:00:16.102Z,0
2018-03-18T00:01:24.928Z,0
2018-03-18T00:02:33.901Z,0
2018-03-18T00:03:42.824Z,0
2018-03-18T00:04:51.648Z,0
2018-03-18T00:06:00.474Z,0
2018-03-18T00:07:09.293Z,0
2018-03-18T00:08:18.695Z,0
2018-03-18T00:09:27.519Z,0
2018-03-18T00:10:36.343Z,0
2018-03-18T00:11:45.440Z,0
2018-03-18T00:12:54.263Z,0
2018-03-18T00:14:03.084Z,0
2018-03-18T00:15:11.913Z,0
2018-03-18T00:16:20.734Z,0
2018-03-18T00:17:29.559Z,0
2018-03-18T00:18:38.383Z,0
2018-03-18T00:19:47.260Z,0
2018-03-18T00:20:56.080Z,0
2018-03-18T00:22:05.177Z,0
2018-03-18T00:23:14.002Z,0
2018-03-18T00:24:22.822Z,0
2018-03-18T00:25:31.696Z,0
2018-03-18T00:26:40.523Z,0
2018-03-18T00:27:49.621Z,0
2018-03-18T00:28:58.442Z,0
2018-03-18T00:30:07.264Z,0
2018-03-18T00:31:16.087Z,0
2018-03-18T00:32:24.955Z,0
2018-03-18T00:33:33.738Z,0
2018-03-18T00:34:42.558Z,0
2018-03-18T00:35:51.381Z,0
2018-03-18T00:37:00.306Z,0
2018-03-18T00:38:09.406Z,0
2018-03-18T00:39:18.228Z,0
2018-03-18T00:40:27.059Z,0
2018-03-18T00:41:35.881Z,0
2018-03-18T00:42:44.953Z,0
2018-03-18T00:43:54.056Z,0
2018-03-18T00:45:02.877Z,0
2018-03-18T00:46:11.701Z,0
2018-03-18T00:47:20.524Z,0
2018-03-18T00:48:29.447Z,0
2018-03-18T00:49:38.271Z,0
2018-03-18T00:50:47.094Z,0
2018-03-18T00:51:55.920Z,0
2018-03-18T00:53:04.742Z,0
2018-03-18T00:54:13.743Z,0
2018-03-18T00:55:22.538Z,0
2018-03-18T00:56:31.364Z,0
2018-03-18T00:57:40.187Z,0
2018-03-18T00:58:49.015Z,0
2018-03-18T00:59:58.216Z,0
2018-03-18T01:01:07.041Z,0
2018-03-18T01:02:15.865Z,0
2018-03-18T01:03:24.694Z,0
2018-03-18T01:04:33.520Z,0
2018-03-18T01:05:42.594Z,0
2018-03-18T01:06:51.423Z,0
2018-03-18T01:08:00.240Z,0
2018-03-18T01:09:09.061Z,0
2018-03-18T01:10:17.882Z,0
2018-03-18T01:11:26.707Z,0
2018-03-18T01:12:35.527Z,0
2018-03-18T01:13:44.348Z,0
2018-03-18T01:14:53.171Z,0
2018-03-18T01:16:01.994Z,0
2018-03-18T01:17:11.105Z,0
2018-03-18T01:18:20.210Z,0
2018-03-18T01:19:29.035Z,0
2018-03-18T01:20:37.860Z,0
2018-03-18T01:21:46.682Z,0
2018-03-18T01:22:55.553Z,0
2018-03-18T01:24:04.381Z,0
2018-03-18T01:25:13.201Z,0
2018-03-18T01:26:22.299Z,0
2018-03-18T01:27:31.124Z,0
2018-03-18T01:28:39.996Z,0
2018-03-18T01:29:48.822Z,0
2018-03-18T01:30:57.642Z,0
2018-03-18T01:32:06.741Z,0
2018-03-18T01:33:15.563Z,0
2018-03-18T01:34:24.393Z,0
2018-03-18T01:35:33.494Z,0
2018-03-18T01:36:42.316Z,0
2018-03-18T01:37:51.140Z,0
2018-03-18T01:38:59.963Z,0
2018-03-18T01:40:08.886Z,0
2018-03-18T01:41:17.987Z,0
2018-03-18T01:42:26.809Z,0
2018-03-18T01:43:35.634Z,0
2018-03-18T01:44:44.457Z,0
2018-03-18T01:45:53.331Z,0
2018-03-18T01:47:02.153Z,0
2018-03-18T01:48:10.977Z,0
2018-03-18T01:49:19.800Z,0
2018-03-18T01:50:28.621Z,0
2018-03-18T01:52:09.760Z,0
2018-03-18T01:53:18.574Z,0
2018-03-18T01:54:27.399Z,0
2018-03-18T01:55:36.221Z,0
2018-03-18T01:56:45.646Z,0
2018-03-18T01:57:54.470Z,0
2018-03-18T01:59:03.292Z,0
2018-03-18T02:00:12.114Z,0
2018-03-18T02:01:21.216Z,0
2018-03-18T02:02:30.142Z,0
2018-03-18T02:03:39.242Z,0
2018-03-18T02:04:48.066Z,0
2018-03-18T02:05:56.890Z,0
2018-03-18T02:07:05.720Z,0
2018-03-18T02:08:14.546Z,0
2018-03-18T02:09:23.648Z,0
2018-03-18T02:10:32.465Z,0
2018-03-18T02:11:41.288Z,0
2018-03-18T02:12:50.390Z,0
2018-03-18T02:13:59.311Z,0
2018-03-18T02:15:08.136Z,0
2018-03-18T02:16:16.957Z,0
2018-03-18T02:17:26.061Z,0
2018-03-18T02:18:34.882Z,0
2018-03-18T02:19:43.703Z,0
2018-03-18T02:20:52.526Z,0
2018-03-18T02:22:01.348Z,0
2018-03-18T02:23:10.451Z,0
2018-03-18T02:24:19.274Z,0
2018-03-18T02:25:28.396Z,0
2018-03-18T02:26:37.222Z,0
2018-03-18T02:27:46.045Z,0
2018-03-18T02:28:54.870Z,0
2018-03-18T02:30:03.696Z,0
2018-03-18T02:31:12.822Z,0
2018-03-18T02:32:21.934Z,0
2018-03-18T02:33:30.759Z,0
2018-03-18T02:34:39.609Z,0
2018-03-18T02:35:48.720Z,0
2018-03-18T02:36:57.958Z,0
2018-03-18T02:38:06.784Z,0
2018-03-18T02:39:15.608Z,0
2018-03-18T02:40:24.429Z,0
2018-03-18T02:41:33.253Z,0
2018-03-18T02:42:42.179Z,0
2018-03-18T02:43:51.001Z,0
2018-03-18T02:45:00.106Z,0
2018-03-18T02:46:08.928Z,0
2018-03-18T02:47:17.754Z,0
2018-03-18T02:48:26.627Z,0
2018-03-18T02:49:35.449Z,0
2018-03-18T02:50:44.271Z,0
2018-03-18T02:51:53.095Z,0
2018-03-18T02:53:01.917Z,0
2018-03-18T02:54:10.740Z,0
2018-03-18T02:55:19.561Z,0
2018-03-18T02:56:28.660Z,0
2018-03-18T02:57:37.766Z,0
2018-03-18T02:58:46.585Z,0
2018-03-18T02:59:55.512Z,0
2018-03-18T03:01:04.608Z,0
2018-03-18T03:02:13.429Z,0
2018-03-18T03:03:22.254Z,0
2018-03-18T03:04:31.360Z,0
2018-03-18T03:05:40.507Z,0
2018-03-18T03:06:49.331Z,0
2018-03-18T03:07:58.164Z,0
2018-03-18T03:09:06.983Z,0
2018-03-18T03:10:15.806Z,0
2018-03-18T03:11:24.978Z,0
2018-03-18T03:12:33.808Z,0
2018-03-18T03:13:42.634Z,0
2018-03-18T03:14:51.730Z,0
2018-03-18T03:16:00.557Z,0
2018-03-18T03:17:09.473Z,0
2018-03-18T03:18:18.569Z,0
2018-03-18T03:19:27.390Z,0
2018-03-18T03:20:36.214Z,0
2018-03-18T03:21:45.312Z,0
2018-03-18T03:22:54.461Z,0
2018-03-18T03:24:03.835Z,0
2018-03-18T03:25:12.650Z,0
2018-03-18T03:26:21.475Z,0
2018-03-18T03:27:30.309Z,0
2018-03-18T03:28:39.267Z,0
2018-03-18T03:29:48.090Z,0
2018-03-18T03:30:56.965Z,0
2018-03-18T03:32:06.084Z,0
2018-03-18T03:33:15.183Z,0
2018-03-18T03:34:24.002Z,0
2018-03-18T03:35:32.824Z,0
2018-03-18T03:36:41.647Z,0
2018-03-18T03:37:50.468Z,0
2018-03-18T03:38:59.571Z,0
2018-03-18T03:40:08.971Z,0
2018-03-18T03:41:18.067Z,0
2018-03-18T03:42:26.888Z,0
2018-03-18T03:43:35.711Z,0
2018-03-18T03:44:44.582Z,0
2018-03-18T03:45:53.455Z,0
2018-03-18T03:47:02.275Z,0
2018-03-18T03:48:11.248Z,0
2018-03-18T03:49:20.070Z,0
2018-03-18T03:50:29.166Z,0
2018-03-18T03:51:37.988Z,0
2018-03-18T03:52:46.811Z,0
2018-03-18T03:53:55.906Z,0
2018-03-18T03:55:04.726Z,0
2018-03-18T03:56:13.548Z,0
2018-03-18T03:57:22.471Z,0
2018-03-18T03:58:31.292Z,0
2018-03-18T03:59:40.115Z,0
2018-03-18T04:00:48.939Z,0
2018-03-18T04:01:57.759Z,0
2018-03-18T04:03:06.732Z,0
2018-03-18T04:04:15.553Z,0
2018-03-18T04:05:24.374Z,0
2018-03-18T04:06:33.195Z,0
2018-03-18T04:07:42.297Z,0
2018-03-18T04:08:51.120Z,0
2018-03-18T04:09:59.943Z,0
2018-03-18T04:11:09.317Z,0
2018-03-18T04:12:18.139Z,0
2018-03-18T04:13:26.962Z,0
2018-03-18T04:14:35.784Z,0
2018-03-18T04:15:44.609Z,0
2018-03-18T04:16:53.705Z,0
2018-03-18T04:18:02.548Z,0
2018-03-18T04:19:11.349Z,0
2018-03-18T04:20:20.603Z,0
2018-03-18T04:21:29.427Z,0
2018-03-18T04:22:38.247Z,0
2018-03-18T04:23:47.397Z,0
2018-03-18T04:24:56.220Z,0
2018-03-18T04:26:05.040Z,0
2018-03-18T04:27:13.864Z,0
2018-03-18T04:28:22.686Z,0
2018-03-18T04:29:31.785Z,0
2018-03-18T04:30:40.606Z,0
2018-03-18T04:31:49.429Z,0
2018-03-18T04:32:58.250Z,0
2018-03-18T04:34:07.070Z,0
2018-03-18T04:35:15.894Z,0
2018-03-18T04:36:24.716Z,0
2018-03-18T04:37:33.537Z,0
2018-03-18T04:38:42.361Z,0
2018-03-18T04:39:51.181Z,0
2018-03-18T04:41:00.003Z,0
2018-03-18T04:42:08.825Z,0
2018-03-18T04:43:17.649Z,0
2018-03-18T04:44:26.466Z,0
2018-03-18T04:45:35.291Z,0
2018-03-18T04:46:44.111Z,0
2018-03-18T04:47:52.937Z,0
2018-03-18T04:49:01.757Z,0
2018-03-18T04:50:10.578Z,0
2018-03-18T04:51:19.399Z,0
2018-03-18T04:52:28.219Z,0
2018-03-18T04:53:37.043Z,0
2018-03-18T04:54:46.216Z,0
2018-03-18T04:55:55.037Z,0
2018-03-18T04:57:03.861Z,0
2018-03-18T04:58:12.683Z,0
2018-03-18T04:59:21.508Z,0
2018-03-18T05:00:30.757Z,0
2018-03-18T05:01:39.579Z,0
2018-03-18T05:02:48.675Z,0
2018-03-18T05:03:57.499Z,0
2018-03-18T05:05:06.325Z,4
2018-03-18T05:06:15.192Z,4
2018-03-18T05:07:24.015Z,0
2018-03-18T05:08:33.118Z,4
2018-03-18T05:09:42.221Z,0
2018-03-18T05:10:51.040Z,4
2018-03-18T05:11:59.861Z,4
2018-03-18T05:13:08.959Z,4
2018-03-18T05:14:17.785Z,4
2018-03-18T05:15:26.610Z,8
2018-03-18T05:16:35.434Z,8
2018-03-18T05:17:44.302Z,12
2018-03-18T05:18:53.402Z,12
2018-03-18T05:20:02.228Z,16
2018-03-18T05:21:11.046Z,20
2018-03-18T05:22:19.892Z,24
2018-03-18T05:23:28.791Z,28
2018-03-18T05:24:37.610Z,32
2018-03-18T05:25:46.435Z,40
2018-03-18T05:26:55.261Z,44
2018-03-18T05:28:04.082Z,48
2018-03-18T05:29:13.052Z,56
2018-03-18T05:30:21.874Z,64
2018-03-18T05:31:30.974Z,72
2018-03-18T05:32:40.067Z,80
2018-03-18T05:33:48.888Z,92
2018-03-18T05:34:58.184Z,104
2018-03-18T05:36:07.007Z,112
2018-03-18T05:37:15.827Z,124
2018-03-18T05:38:24.648Z,136
2018-03-18T05:39:33.468Z,148
2018-03-18T05:40:42.293Z,164
2018-03-18T05:41:51.387Z,176
2018-03-18T05:43:00.212Z,192
2018-03-18T05:44:09.033Z,208
2018-03-18T05:45:17.858Z,224
2018-03-18T05:46:27.427Z,236
2018-03-18T05:47:36.246Z,256
2018-03-18T05:48:45.069Z,268
2018-03-18T05:49:53.892Z,288
2018-03-18T05:51:02.713Z,304
2018-03-18T05:52:11.634Z,320
2018-03-18T05:53:20.740Z,340
2018-03-18T05:54:29.551Z,356
2018-03-18T05:55:38.376Z,372
2018-03-18T05:56:47.198Z,388
2018-03-18T05:57:56.068Z,408
2018-03-18T05:59:04.889Z,424
2018-03-18T06:00:13.710Z,440
2018-03-18T06:01:22.534Z,456
2018-03-18T06:02:31.354Z,476
2018-03-18T06:03:40.226Z,492
2018-03-18T06:04:49.048Z,512
2018-03-18T06:05:57.870Z,528
2018-03-18T06:07:06.690Z,544
2018-03-18T06:08:15.614Z,560
2018-03-18T06:09:24.638Z,576
2018-03-18T06:10:33.462Z,592
2018-03-18T06:11:42.283Z,608
2018-03-18T06:12:51.107Z,624
2018-03-18T06:13:59.929Z,640
2018-03-18T06:15:08.999Z,652
2018-03-18T06:16:18.097Z,672
2018-03-18T06:17:27.205Z,688
2018-03-18T06:18:36.024Z,700
2018-03-18T06:19:45.129Z,712
2018-03-18T06:20:54.375Z,728
2018-03-18T06:22:03.199Z,744
2018-03-18T06:23:12.023Z,756
2018-03-18T06:24:21.119Z,764
2018-03-18T06:25:29.941Z,780
2018-03-18T06:26:38.863Z,788
2018-03-18T06:27:47.688Z,804
2018-03-18T06:28:56.509Z,816
2018-03-18T06:30:05.605Z,828
2018-03-18T06:31:14.427Z,840
2018-03-18T06:32:23.246Z,852
2018-03-18T06:33:32.068Z,860
2018-03-18T06:34:40.890Z,868
2018-03-18T06:35:49.713Z,880
2018-03-18T06:36:58.534Z,892
2018-03-18T06:38:07.365Z,900
2018-03-18T06:39:16.450Z,912
2018-03-18T06:40:25.271Z,920
2018-03-18T06:41:34.093Z,928
2018-03-18T06:42:42.921Z,936
2018-03-18T06:43:52.019Z,948
2018-03-18T06:45:00.839Z,952
2018-03-18T06:46:09.953Z,964
2018-03-18T06:47:18.775Z,972
2018-03-18T06:48:27.596Z,976
2018-03-18T06:49:36.616Z,988
2018-03-18T06:50:45.444Z,992
2018-03-18T06:51:54.579Z,996
2018-03-18T06:53:03.360Z,1004
2018-03-18T06:54:12.475Z,1012
2018-03-18T06:55:21.949Z,1020
2018-03-18T06:56:30.770Z,1024
2018-03-18T06:57:39.592Z,1032
2018-03-18T06:58:48.415Z,1040
2018-03-18T06:59:57.520Z,1044
2018-03-18T07:01:06.743Z,1048
2018-03-18T07:02:16.116Z,1056
2018-03-18T07:03:25.216Z,1060
2018-03-18T07:04:34.038Z,1068
2018-03-18T07:05:42.863Z,1072
2018-03-18T07:06:51.735Z,1076
2018-03-18T07:08:00.559Z,1084
2018-03-18T07:09:09.380Z,1084
2018-03-18T07:10:18.204Z,1092
2018-03-18T07:11:27.026Z,1096
2018-03-18T07:12:36.279Z,1100
2018-03-18T07:13:45.102Z,1108
2018-03-18T07:14:53.925Z,1108
2018-03-18T07:16:02.748Z,1112
2018-03-18T07:17:11.571Z,1116
2018-03-18T07:18:20.545Z,1120
2018-03-18T07:19:29.370Z,1128
2018-03-18T07:20:38.192Z,1132
2018-03-18T07:21:47.013Z,1136
2018-03-18T07:22:56.117Z,1144
2018-03-18T07:24:04.995Z,1144
2018-03-18T07:25:13.818Z,1152
2018-03-18T07:26:22.640Z,1152
2018-03-18T07:27:31.465Z,1156
2018-03-18T07:28:40.285Z,1164
2018-03-18T07:29:49.108Z,1164
2018-03-18T07:30:57.931Z,1168
2018-03-18T07:32:06.753Z,1176
2018-03-18T07:33:15.887Z,1180
2018-03-18T07:34:24.708Z,1184
2018-03-18T07:35:33.579Z,1184
2018-03-18T07:36:42.404Z,1192
2018-03-18T07:37:51.225Z,1196
2018-03-18T07:39:00.048Z,1196
2018-03-18T07:40:08.877Z,1200
2018-03-18T07:41:17.995Z,1212
2018-03-18T07:42:26.820Z,1208
2018-03-18T07:43:35.644Z,1220
2018-03-18T07:44:44.465Z,1220
2018-03-18T07:45:53.289Z,1228
2018-03-18T07:47:02.366Z,1232
2018-03-18T07:48:11.463Z,1236
2018-03-18T07:49:20.563Z,1232
2018-03-18T07:50:29.389Z,1240
2018-03-18T07:51:38.208Z,1248
2018-03-18T07:52:47.082Z,1248
2018-03-18T07:53:55.905Z,1256
2018-03-18T07:55:04.728Z,1260
2018-03-18T07:56:13.831Z,1264
2018-03-18T07:57:22.649Z,1272
2018-03-18T07:58:31.776Z,1268
2018-03-18T07:59:40.884Z,1280
2018-03-18T08:00:49.706Z,1284
2018-03-18T08:01:58.565Z,1280
2018-03-18T08:03:07.667Z,1288
2018-03-18T08:04:16.594Z,1288
2018-03-18T08:05:25.418Z,1300
2018-03-18T08:06:34.244Z,1296
2018-03-18T08:07:43.068Z,1304
2018-03-18T08:08:51.893Z,1316
2018-03-18T08:10:00.716Z,1312
2018-03-18T08:11:09.825Z,1320
2018-03-18T08:12:18.650Z,1324
2018-03-18T08:13:27.515Z,1324
2018-03-18T08:14:36.296Z,1320
2018-03-18T08:15:45.424Z,1328
2018-03-18T08:16:54.526Z,1332
2018-03-18T08:18:03.351Z,1340
2018-03-18T08:19:12.174Z,1340
2018-03-18T08:20:21.002Z,1344
2018-03-18T08:21:29.874Z,1348
2018-03-18T08:22:38.698Z,1356
2018-03-18T08:23:47.521Z,1356
2018-03-18T08:24:56.347Z,1372
2018-03-18T08:26:05.169Z,1368
2018-03-18T08:27:14.043Z,1368
2018-03-18T08:28:22.870Z,1376
2018-03-18T08:29:31.695Z,1376
2018-03-18T08:30:40.516Z,1384
2018-03-18T08:31:49.342Z,1392
2018-03-18T08:32:58.167Z,1396
2018-03-18T08:34:06.994Z,1400
2018-03-18T08:35:15.815Z,1408
2018-03-18T08:36:24.645Z,1412
2018-03-18T08:37:33.468Z,1424
2018-03-18T08:38:42.440Z,1420
2018-03-18T08:39:51.262Z,1428
2018-03-18T08:41:00.086Z,1440
2018-03-18T08:42:08.914Z,1436
2018-03-18T08:43:18.010Z,1440
2018-03-18T08:44:26.885Z,1448
2018-03-18T08:45:35.987Z,1452
2018-03-18T08:46:44.828Z,1460
2018-03-18T08:47:53.636Z,1456
2018-03-18T08:49:02.466Z,1468
2018-03-18T08:50:11.767Z,1464
2018-03-18T08:51:20.591Z,1476
2018-03-18T08:52:29.414Z,1484
2018-03-18T08:53:38.238Z,1492
2018-03-18T08:54:47.069Z,1492
2018-03-18T08:55:56.051Z,1500
2018-03-18T08:57:05.149Z,1504
2018-03-18T08:58:13.974Z,1508
2018-03-18T08:59:22.797Z,1504
2018-03-18T09:00:31.620Z,1516
2018-03-18T09:01:40.496Z,1516
2018-03-18T09:02:49.595Z,1528
2018-03-18T09:03:58.424Z,1532
2018-03-18T09:05:07.255Z,1540
2018-03-18T09:06:16.076Z,1540
2018-03-18T09:07:25.150Z,1544
2018-03-18T09:08:33.974Z,1560
2018-03-18T09:09:42.799Z,1564
2018-03-18T09:10:51.627Z,1568
2018-03-18T09:12:00.728Z,1576
2018-03-18T09:13:09.651Z,1576
2018-03-18T09:14:18.479Z,1572
2018-03-18T09:15:27.301Z,1584
2018-03-18T09:16:36.127Z,1588
2018-03-18T09:17:45.004Z,1596
2018-03-18T09:18:53.825Z,1596
2018-03-18T09:20:02.654Z,1604
2018-03-18T09:21:11.752Z,1612
2018-03-18T09:22:20.577Z,1612
2018-03-18T09:23:29.401Z,1612
2018-03-18T09:24:38.275Z,1624
2018-03-18T09:25:47.381Z,1632
2018-03-18T09:26:56.211Z,1640
2018-03-18T09:28:05.037Z,1636
2018-03-18T09:29:13.862Z,1640
2018-03-18T09:30:22.686Z,1652
2018-03-18T09:31:31.512Z,1660
2018-03-18T09:32:40.339Z,1660
2018-03-18T09:33:49.164Z,1672
2018-03-18T09:34:57.993Z,1676
2018-03-18T09:36:07.070Z,1680
2018-03-18T09:37:15.895Z,1684
2018-03-18T09:38:24.719Z,1688
2018-03-18T09:39:33.545Z,1696
2018-03-18T09:40:42.370Z,1696
2018-03-18T09:41:51.296Z,1712
2018-03-18T09:43:00.121Z,1712
2018-03-18T09:44:09.220Z,1720
2018-03-18T09:45:18.044Z,1728
2018-03-18T09:46:27.169Z,1732
2018-03-18T09:47:36.094Z,1732
2018-03-18T09:48:44.920Z,1736
2018-03-18T09:49:53.750Z,1724
2018-03-18T09:51:02.573Z,1728
2018-03-18T09:52:11.398Z,1736
2018-03-18T09:53:20.373Z,1728
2018-03-18T09:54:29.198Z,1724
2018-03-18T09:55:38.024Z,1716
2018-03-18T09:56:46.851Z,1736
2018-03-18T09:57:55.675Z,1752
2018-03-18T09:59:04.751Z,1752
2018-03-18T10:00:13.575Z,1748
2018-03-18T10:01:22.402Z,1756
2018-03-18T10:02:31.290Z,1764
2018-03-18T10:03:40.053Z,1772
2018-03-18T10:04:48.990Z,1784
2018-03-18T10:05:58.088Z,1788
2018-03-18T10:07:06.913Z,1800
2018-03-18T10:08:15.744Z,1796
2018-03-18T10:09:24.564Z,1820
2018-03-18T10:10:33.490Z,1828
2018-03-18T10:11:42.596Z,1832
2018-03-18T10:12:51.420Z,1844
2018-03-18T10:14:00.254Z,1860
2018-03-18T10:15:09.077Z,1860
2018-03-18T10:16:18.054Z,1880
2018-03-18T10:17:27.154Z,1892
2018-03-18T10:18:35.979Z,1900
2018-03-18T10:19:44.804Z,1912
2018-03-18T10:20:53.629Z,1916
2018-03-18T10:22:02.504Z,1928
2018-03-18T10:23:11.328Z,1940
2018-03-18T10:24:20.154Z,1944
2018-03-18T10:25:28.980Z,1956
2018-03-18T10:26:37.805Z,1964
2018-03-18T10:27:46.633Z,1980
2018-03-18T10:28:55.458Z,1992
2018-03-18T10:30:04.287Z,2012
2018-03-18T10:31:13.123Z,2020
2018-03-18T10:32:22.289Z,2020
2018-03-18T10:33:31.794Z,2036
2018-03-18T10:34:40.624Z,2032
2018-03-18T10:35:49.452Z,2040
2018-03-18T10:36:58.279Z,2044
2018-03-18T10:38:07.109Z,2048
2018-03-18T10:39:15.937Z,2056
2018-03-18T10:40:24.762Z,2064
2018-03-18T10:41:33.591Z,2076
2018-03-18T10:42:42.694Z,2080
2018-03-18T10:43:51.520Z,2092
2018-03-18T10:45:00.423Z,2100
2018-03-18T10:46:09.524Z,2100
2018-03-18T10:47:18.626Z,2096
2018-03-18T10:48:27.455Z,2108
2018-03-18T10:49:36.281Z,2116
2018-03-18T10:50:45.114Z,2124
2018-03-18T10:51:53.978Z,2132
2018-03-18T10:53:02.772Z,2128
2018-03-18T10:54:11.598Z,2132
2018-03-18T10:55:20.426Z,2152
2018-03-18T10:56:29.350Z,2156
2018-03-18T10:57:38.177Z,2156
2018-03-18T10:58:47.054Z,2160
2018-03-18T10:59:55.887Z,2164
2018-03-18T11:01:04.712Z,2172
2018-03-18T11:02:13.684Z,2176
2018-03-18T11:03:22.511Z,2188
2018-03-18T11:04:31.336Z,2200
2018-03-18T11:05:40.163Z,2204
2018-03-18T11:06:48.997Z,2216
2018-03-18T11:07:57.822Z,2224
2018-03-18T11:09:06.649Z,2240
2018-03-18T11:10:15.476Z,2248
2018-03-18T11:11:24.303Z,2256
2018-03-18T11:12:33.133Z,2268
2018-03-18T11:13:42.385Z,2276
2018-03-18T11:14:51.212Z,2288
2018-03-18T11:16:00.045Z,2296
2018-03-18T11:17:08.871Z,2308
2018-03-18T11:18:17.697Z,2312
2018-03-18T11:19:26.676Z,2320
2018-03-18T11:20:35.557Z,2328
2018-03-18T11:21:44.329Z,2336
2018-03-18T11:22:53.154Z,2344
2018-03-18T11:24:01.984Z,2348
2018-03-18T11:25:10.914Z,2364
2018-03-18T11:26:19.691Z,2372
2018-03-18T11:27:28.518Z,2388
2018-03-18T11:28:37.351Z,2392
2018-03-18T11:29:46.174Z,2396
2018-03-18T11:30:55.102Z,2404
2018-03-18T11:32:03.927Z,2412
2018-03-18T11:33:12.770Z,2416
2018-03-18T11:34:21.584Z,2420
2018-03-18T11:35:30.414Z,2428
2018-03-18T11:36:39.292Z,2440
2018-03-18T11:37:48.119Z,2448
2018-03-18T11:38:56.946Z,2452
2018-03-18T11:40:05.774Z,2472
2018-03-18T11:41:14.876Z,2476
2018-03-18T11:42:23.856Z,2488
2018-03-18T11:43:32.723Z,2492
2018-03-18T11:44:41.516Z,2500
2018-03-18T11:45:50.344Z,2504
2018-03-18T11:46:59.451Z,2520
2018-03-18T11:48:08.429Z,2532
2018-03-18T11:49:17.257Z,2536
2018-03-18T11:50:26.084Z,2560
2018-03-18T11:51:35.203Z,2572
2018-03-18T11:52:44.030Z,2588
2018-03-18T11:53:52.907Z,2608
2018-03-18T11:55:01.737Z,2620
2018-03-18T11:56:11.122Z,2624
2018-03-18T11:57:19.945Z,2632
2018-03-18T11:58:29.057Z,2652
2018-03-18T11:59:37.937Z,2688
2018-03-18T12:00:46.763Z,2748
2018-03-18T12:01:55.590Z,2808
2018-03-18T12:03:04.420Z,2916
2018-03-18T12:04:13.527Z,3084
2018-03-18T12:05:22.790Z,3532
2018-03-18T12:06:31.664Z,6092
2018-03-18T12:07:40.436Z,7940
2018-03-18T12:08:49.269Z,11528
2018-03-18T12:09:58.099Z,27360
2018-03-18T12:11:06.977Z,42336
2018-03-18T12:12:15.805Z,44096
2018-03-18T12:13:24.915Z,45760
2018-03-18T12:14:34.017Z,44960
2018-03-18T12:15:42.849Z,37504
2018-03-18T12:16:51.689Z,45184
2018-03-18T12:18:00.515Z,37440
2018-03-18T12:19:09.624Z,36448
2018-03-18T12:20:18.456Z,41120
2018-03-18T12:21:27.287Z,40032
2018-03-18T12:22:36.226Z,36832
2018-03-18T12:23:45.063Z,30560
2018-03-18T12:24:53.897Z,25696
2018-03-18T12:26:02.730Z,31296
2018-03-18T12:27:11.568Z,26912
2018-03-18T12:28:20.653Z,28800
2018-03-18T12:29:29.490Z,29824
2018-03-18T12:30:38.336Z,27936
2018-03-18T12:31:47.448Z,27456
2018-03-18T12:32:56.286Z,15360
2018-03-18T12:34:05.279Z,9168
2018-03-18T12:35:14.107Z,8356
2018-03-18T12:36:22.941Z,21248
2018-03-18T12:37:31.777Z,27648
2018-03-18T12:38:40.616Z,20512
2018-03-18T12:39:49.502Z,15488
2018-03-18T12:40:58.616Z,18848
2018-03-18T12:42:07.450Z,16448
2018-03-18T12:43:16.287Z,11800
2018-03-18T12:44:25.124Z,15072
2018-03-18T12:45:34.060Z,17280
2018-03-18T12:46:43.178Z,13760
2018-03-18T12:47:52.290Z,16416
2018-03-18T12:49:01.127Z,21952
2018-03-18T12:50:09.962Z,22720
2018-03-18T12:51:18.800Z,20128
2018-03-18T12:52:27.640Z,25216
2018-03-18T12:53:36.475Z,29952
2018-03-18T12:54:45.316Z,24992
2018-03-18T12:55:54.158Z,29280
2018-03-18T12:57:03.044Z,29600
2018-03-18T12:58:11.880Z,13192
2018-03-18T12:59:20.720Z,16800
2018-03-18T13:00:29.557Z,20128
2018-03-18T13:01:38.394Z,33984
2018-03-18T13:02:47.287Z,35936
2018-03-18T13:03:56.681Z,34656
2018-03-18T13:05:05.515Z,23840
2018-03-18T13:06:14.737Z,13792
2018-03-18T13:07:23.577Z,16000
2018-03-18T13:08:32.714Z,8976
2018-03-18T13:09:41.840Z,6924
2018-03-18T13:10:50.957Z,15424
2018-03-18T13:11:59.796Z,15392
2018-03-18T13:13:08.633Z,18432
2018-03-18T13:14:17.900Z,11516
2018-03-18T13:15:27.016Z,13432
2018-03-18T13:16:36.137Z,17280
2018-03-18T13:17:44.988Z,13256
2018-03-18T13:18:53.833Z,14528
2018-03-18T13:20:02.731Z,11988
2018-03-18T13:21:11.579Z,15968
2018-03-18T13:22:20.430Z,16064
2018-03-18T13:23:29.278Z,16320
2018-03-18T13:24:38.188Z,28000
2018-03-18T13:25:47.130Z,40320
2018-03-18T13:26:55.974Z,28864
2018-03-18T13:28:04.822Z,10568
2018-03-18T13:29:13.660Z,3596
2018-03-18T13:30:22.494Z,8940
2018-03-18T13:31:31.330Z,23744
2018-03-18T13:32:40.195Z,22400
2018-03-18T13:33:49.061Z,10528
2018-03-18T13:34:57.896Z,13092
2018-03-18T13:36:06.731Z,12144
2018-03-18T13:37:15.674Z,16896
2018-03-18T13:38:24.501Z,12632
2018-03-18T13:39:33.340Z,8316
2018-03-18T13:40:42.173Z,13432
2018-03-18T13:41:51.009Z,13000
2018-03-18T13:42:59.896Z,13128
2018-03-18T13:44:08.737Z,22144
2018-03-18T13:45:17.581Z,10364
2018-03-18T13:46:26.428Z,16952
2018-03-18T13:47:35.267Z,14008
2018-03-18T13:48:44.254Z,8332
2018-03-18T13:49:53.159Z,19168
2018-03-18T13:51:02.003Z,29120
2018-03-18T13:52:10.838Z,25408
2018-03-18T13:53:19.672Z,17824
2018-03-18T13:54:28.775Z,20544
2018-03-18T13:55:37.600Z,31040
2018-03-18T13:56:46.436Z,36384
2018-03-18T13:57:55.275Z,37632
2018-03-18T13:59:04.392Z,33088
2018-03-18T14:00:13.530Z,30176
2018-03-18T14:01:22.368Z,28000
2018-03-18T14:02:31.206Z,29536
2018-03-18T14:03:40.043Z,32960
2018-03-18T14:04:49.158Z,33504
2018-03-18T14:05:58.047Z,37568
2018-03-18T14:07:06.946Z,41728
2018-03-18T14:08:15.802Z,38080
2018-03-18T14:09:24.641Z,39552
2018-03-18T14:10:33.489Z,44480
2018-03-18T14:11:42.491Z,37824
2018-03-18T14:12:51.352Z,32640
2018-03-18T14:14:00.195Z,30688
2018-03-18T14:15:09.036Z,30112
2018-03-18T14:16:17.882Z,36352
2018-03-18T14:17:26.826Z,41120
2018-03-18T14:18:35.671Z,43072
2018-03-18T14:19:44.511Z,42368
2018-03-18T14:20:53.352Z,40640
2018-03-18T14:22:02.192Z,43968
2018-03-18T14:23:11.134Z,42240
2018-03-18T14:24:19.987Z,36704
2018-03-18T14:25:28.829Z,41344
2018-03-18T14:26:37.681Z,42816
2018-03-18T14:27:46.528Z,35616
2018-03-18T14:28:55.372Z,40512
2018-03-18T14:30:04.214Z,36672
2018-03-18T14:31:13.058Z,37152
2018-03-18T14:32:21.901Z,35040
2018-03-18T14:33:30.743Z,40160
2018-03-18T14:34:39.583Z,38752
2018-03-18T14:35:48.425Z,37376
2018-03-18T14:36:57.289Z,33120
2018-03-18T14:38:06.132Z,33856
2018-03-18T14:39:14.978Z,25920
2018-03-18T14:40:24.089Z,25440
2018-03-18T14:41:32.970Z,23648
2018-03-18T14:42:42.108Z,18912
2018-03-18T14:43:51.233Z,17504
2018-03-18T14:45:00.091Z,26048
2018-03-18T14:46:08.919Z,23072
2018-03-18T14:47:17.796Z,22048
2018-03-18T14:48:26.696Z,20160
2018-03-18T14:49:35.819Z,20256
2018-03-18T14:50:44.665Z,21408
2018-03-18T14:51:53.782Z,21824
2018-03-18T14:53:02.665Z,20928
2018-03-18T14:54:11.595Z,14656
2018-03-18T14:55:20.465Z,18816
2018-03-18T14:56:29.345Z,22080
2018-03-18T14:57:38.197Z,25664
2018-03-18T14:58:47.039Z,18112
2018-03-18T14:59:56.033Z,15936
2018-03-18T15:01:04.880Z,17280
2018-03-18T15:02:13.720Z,22720
2018-03-18T15:03:22.557Z,22560
2018-03-18T15:04:31.416Z,25312
2018-03-18T15:05:40.410Z,22336
2018-03-18T15:06:49.253Z,16128
2018-03-18T15:07:58.094Z,10828
2018-03-18T15:09:07.225Z,14368
2018-03-18T15:10:16.068Z,10500
2018-03-18T15:11:25.009Z,11448
2018-03-18T15:12:33.854Z,13200
2018-03-18T15:13:42.712Z,12644
2018-03-18T15:14:51.557Z,7036
2018-03-18T15:16:00.395Z,3892
2018-03-18T15:17:09.386Z,10464
2018-03-18T15:18:18.532Z,15616
2018-03-18T15:19:27.336Z,12512
2018-03-18T15:20:36.171Z,10196
2018-03-18T15:21:45.015Z,11116
2018-03-18T15:22:53.900Z,13928
2018-03-18T15:24:02.738Z,15136
2018-03-18T15:25:11.575Z,15008
2018-03-18T15:26:20.436Z,12164
2018-03-18T15:27:29.250Z,11108
2018-03-18T15:28:38.083Z,7584
2018-03-18T15:29:46.925Z,10916
2018-03-18T15:30:56.318Z,9580
2018-03-18T15:32:05.430Z,9820
2018-03-18T15:33:14.278Z,8760
2018-03-18T15:34:23.220Z,8340
2018-03-18T15:35:32.066Z,11560
2018-03-18T15:36:40.905Z,14944
2018-03-18T15:37:49.734Z,10336
2018-03-18T15:38:58.572Z,13416
2018-03-18T15:40:07.694Z,16480
2018-03-18T15:41:16.813Z,16032
2018-03-18T15:42:25.655Z,19616
2018-03-18T15:43:34.760Z,21536
2018-03-18T15:44:43.597Z,24736
2018-03-18T15:45:52.432Z,20608